Time;durP1;ratioP1;P1;durP2;ratioP2;P2;SDS_P1;SDS_P2;PMS_P1;PMS_P2;Temp;Humidity;BMP_temperature;BMP_pressure;BME280_temperature;BME280_humidity;BME280_pressure;Samples;Min_cycle;Max_cycle;Signal;HPM_P1;HPM_P2
2023/08/24 00:01:54;;;;;;;4.80;4.30;;;;;;;23.02;97.58;96724.50;5111209;28;20513;-66
2023/08/24 00:04:22;;;;;;;4.47;4.13;;;;;;;23.01;97.83;96717.47;5111792;28;20208;-65
2023/08/24 00:06:49;;;;;;;6.15;4.45;;;;;;;23.02;97.64;96714.56;5110924;28;20224;-66
2023/08/24 00:09:16;;;;;;;5.15;4.60;;;;;;;22.99;98.82;96709.56;5111777;28;20238;-67
2023/08/24 00:11:43;;;;;;;4.82;4.38;;;;;;;23.01;97.50;96701.28;5110777;28;20205;-64
2023/08/24 00:14:10;;;;;;;6.10;4.40;;;;;;;22.98;98.13;96699.03;5111592;28;20200;-64
2023/08/24 00:16:36;;;;;;;5.25;4.43;;;;;;;22.92;98.25;96702.59;5123772;28;20225;-66
2023/08/24 00:19:03;;;;;;;4.80;4.32;;;;;;;22.92;98.24;96708.00;5131552;28;20201;-65
2023/08/24 00:21:28;;;;;;;5.10;4.60;;;;;;;22.93;97.55;96704.22;5131252;28;20201;-66
2023/08/24 00:23:55;;;;;;;4.07;3.78;;;;;;;22.95;97.22;96702.16;5113188;28;20219;-64
2023/08/24 00:26:23;;;;;;;6.10;4.10;;;;;;;22.91;97.20;96701.78;5110683;28;20247;-67
2023/08/24 00:28:51;;;;;;;6.07;4.00;;;;;;;22.80;96.05;96705.16;5110945;28;20204;-64
2023/08/24 00:31:18;;;;;;;4.32;3.60;;;;;;;22.77;95.44;96708.31;5110924;28;20916;-65
2023/08/24 00:33:44;;;;;;;5.72;4.28;;;;;;;22.86;96.18;96704.28;5111378;28;20266;-64
2023/08/24 00:36:11;;;;;;;6.38;3.97;;;;;;;22.87;96.74;96699.72;5111084;28;20197;-65
2023/08/24 00:38:37;;;;;;;4.65;4.25;;;;;;;22.78;98.32;96696.44;5111310;28;20227;-65
2023/08/24 00:41:04;;;;;;;4.78;4.15;;;;;;;22.80;96.31;96697.91;5110993;28;20205;-65
2023/08/24 00:43:31;;;;;;;4.63;4.00;;;;;;;22.76;95.74;96698.56;5110721;28;20243;-64
2023/08/24 00:46:01;;;;;;;4.60;4.00;;;;;;;22.68;97.52;96691.53;5111090;28;20193;-64
2023/08/24 00:48:28;;;;;;;4.38;3.97;;;;;;;22.64;97.74;96692.16;5111362;28;20197;-65
2023/08/24 00:50:55;;;;;;;6.55;3.85;;;;;;;22.65;97.92;96704.59;5092603;28;20398;-65
2023/08/24 00:53:24;;;;;;;4.50;4.10;;;;;;;22.64;98.04;96695.69;5111313;28;20205;-63
2023/08/24 00:55:51;;;;;;;4.47;3.92;;;;;;;22.61;98.38;96698.00;5110533;28;20234;-63
2023/08/24 00:58:18;;;;;;;4.15;3.85;;;;;;;;;;5111232;28;20205;-65
2023/08/24 01:00:45;;;;;;;6.00;4.20;;;;;;;22.50;99.40;96701.38;5110574;28;20535;-64
2023/08/24 01:03:13;;;;;;;5.18;4.00;;;;;;;22.43;97.31;96698.72;5111297;28;20197;-64
2023/08/24 01:05:39;;;;;;;4.20;3.80;;;;;;;22.43;99.07;96704.09;5111011;28;20193;-63
2023/08/24 01:08:06;;;;;;;3.92;3.60;;;;;;;22.42;98.81;96697.09;5111011;28;20210;-64
2023/08/24 01:10:40;;;;;;;4.70;4.15;;;;;;;22.35;100.00;96696.28;5111258;28;20229;-64
2023/08/24 01:13:10;;;;;;;5.00;3.80;;;;;;;22.27;98.98;96693.84;5110874;28;20200;-64
2023/08/24 01:15:40;;;;;;;6.00;4.05;;;;;;;22.27;99.99;96691.13;5115584;28;20710;-66
2023/08/24 01:18:13;;;;;;;4.13;3.72;;;;;;;22.30;100.00;96693.41;5115793;28;20210;-66
2023/08/24 01:20:41;;;;;;;4.60;4.20;;;;;;;22.18;100.00;96690.53;5114349;28;20197;-65
2023/08/24 01:23:17;;;;;;;4.57;4.20;;;;;;;22.20;100.00;96682.25;5112096;28;20213;-65
2023/08/24 01:25:49;;;;;;;5.28;4.75;;;;;;;22.15;100.00;96679.38;5112453;28;20205;-64
2023/08/24 01:28:18;;;;;;;5.18;4.05;;;;;;;22.10;100.00;96676.53;5112323;28;20189;-64
2023/08/24 01:30:45;;;;;;;4.97;4.57;;;;;;;22.04;100.00;96670.09;5114061;28;20228;-65
2023/08/24 01:33:13;;;;;;;4.63;4.22;;;;;;;21.97;100.00;96669.31;5114295;28;20202;-64
2023/08/24 01:35:39;;;;;;;4.72;4.32;;;;;;;21.98;100.00;96656.66;5117320;28;20258;-65
2023/08/24 01:38:06;;;;;;;4.57;4.18;;;;;;;21.95;100.00;96663.31;5117955;28;20242;-65
2023/08/24 01:40:39;;;;;;;4.18;3.88;;;;;;;21.93;100.00;96669.97;5117301;28;20189;-65
2023/08/24 01:43:08;;;;;;;4.50;4.10;;;;;;;21.92;100.00;96668.31;5116078;28;20268;-65
2023/08/24 01:45:36;;;;;;;5.97;4.10;;;;;;;21.83;100.00;96659.59;5116292;28;20204;-66
2023/08/24 01:48:04;;;;;;;6.40;4.80;;;;;;;21.79;100.00;96659.19;5114778;28;20220;-66
2023/08/24 01:50:30;;;;;;;4.80;4.28;;;;;;;21.75;100.00;96663.34;5114018;28;20225;-64
2023/08/24 01:52:57;;;;;;;4.70;4.30;;;;;;;21.72;100.00;96662.94;5113774;28;20201;-64
2023/08/24 01:55:24;;;;;;;6.30;4.20;;;;;;;21.72;100.00;96653.00;5114286;28;20209;-65
2023/08/24 01:57:50;;;;;;;4.80;4.30;;;;;;;21.69;100.00;96648.03;5113837;28;20204;-66
2023/08/24 02:00:17;;;;;;;4.60;4.10;;;;;;;21.63;100.00;96635.44;5114288;28;20216;-66
2023/08/24 02:02:45;;;;;;;4.80;4.05;;;;;;;21.61;100.00;96634.81;5114273;28;20201;-64
2023/08/24 02:05:11;;;;;;;4.97;4.57;;;;;;;21.62;100.00;96633.78;5114342;28;20212;-65
2023/08/24 02:07:40;;;;;;;4.75;4.35;;;;;;;21.61;100.00;96634.81;5113859;28;20208;-64
2023/08/24 02:10:07;;;;;;;4.82;4.40;;;;;;;21.65;100.00;96641.44;5113820;28;20221;-65
2023/08/24 02:12:33;;;;;;;5.63;4.35;;;;;;;21.63;100.00;96642.69;5113937;28;20201;-66
2023/08/24 02:15:00;;;;;;;4.82;4.43;;;;;;;21.61;100.00;96640.19;5113810;28;20209;-64
2023/08/24 02:17:27;;;;;;;4.20;3.90;;;;;;;21.59;100.00;96636.91;5113600;28;20207;-64
2023/08/24 02:20:00;;;;;;;4.65;4.25;;;;;;;21.60;100.00;96627.81;5113620;28;20617;-64
2023/08/24 02:22:26;;;;;;;4.93;4.45;;;;;;;21.58;100.00;96624.47;5114038;28;20284;-64
2023/08/24 02:24:53;;;;;;;4.85;4.20;;;;;;;21.56;100.00;96621.19;5113578;28;20536;-64
2023/08/24 02:27:19;;;;;;;8.20;3.90;;;;;;;21.57;100.00;96616.63;5113171;28;20232;-64
2023/08/24 02:29:45;;;;;;;5.60;4.35;;;;;;;21.57;100.00;96606.69;5114099;28;20224;-65
2023/08/24 02:32:12;;;;;;;6.57;4.47;;;;;;;21.48;100.00;96610.66;5113522;28;20220;-64
2023/08/24 02:34:39;;;;;;;4.45;4.03;;;;;;;21.48;100.00;96605.28;5113064;28;20220;-64
2023/08/24 02:37:06;;;;;;;4.85;4.30;;;;;;;21.49;100.00;96601.53;5113786;28;20216;-66
2023/08/24 02:39:35;;;;;;;4.72;4.28;;;;;;;21.51;100.00;96607.53;5113680;28;20208;-65
2023/08/24 02:42:02;;;;;;;4.88;4.38;;;;;;;21.50;100.00;96605.06;5112668;28;20201;-65
2023/08/24 02:44:28;;;;;;;4.43;4.07;;;;;;;21.51;100.00;96602.16;5095222;28;20629;-64
2023/08/24 02:46:55;;;;;;;4.97;4.57;;;;;;;21.51;100.00;96607.53;5113740;28;20201;-63
2023/08/24 02:49:23;;;;;;;6.03;4.50;;;;;;;21.41;100.00;96604.47;5113505;28;20202;-65
2023/08/24 02:51:51;;;;;;;4.85;4.30;;;;;;;21.36;100.00;96604.28;5112945;28;20224;-64
2023/08/24 02:54:19;;;;;;;4.90;4.50;;;;;;;21.35;100.00;96605.31;5113048;28;20660;-64
2023/08/24 02:56:45;;;;;;;4.68;4.25;;;;;;;21.35;100.00;96597.25;5113047;28;20201;-65
2023/08/24 02:59:12;;;;;;;5.20;4.70;;;;;;;21.34;100.00;96600.97;5113234;28;20219;-64
2023/08/24 03:01:41;;;;;;;8.90;4.38;;;;;;;21.28;100.00;96591.88;5112685;28;20205;-64
2023/08/24 03:04:07;;;;;;;4.80;4.40;;;;;;;21.27;100.00;96584.84;5113654;28;20215;-65
2023/08/24 03:06:33;;;;;;;4.43;4.13;;;;;;;21.24;100.00;96584.44;5113223;28;20201;-66
2023/08/24 03:09:00;;;;;;;5.18;4.68;;;;;;;21.18;100.00;96585.28;5113241;28;20197;-65
2023/08/24 03:11:28;;;;;;;5.60;4.88;;;;;;;21.18;100.00;96572.69;5112506;28;20225;-66
2023/08/24 03:13:55;;;;;;;7.10;5.00;;;;;;;21.21;100.00;96576.81;5094514;28;20201;-65
2023/08/24 03:16:21;;;;;;;5.22;4.50;;;;;;;21.16;100.00;96572.03;5112667;28;20528;-66
2023/08/24 03:18:48;;;;;;;5.65;5.00;;;;;;;21.19;100.00;96577.00;5112562;28;20240;-65
2023/08/24 03:21:14;;;;;;;5.30;4.90;;;;;;;21.19;100.00;96570.78;5112027;28;20208;-63
2023/08/24 03:23:41;;;;;;;5.07;4.57;;;;;;;21.15;100.00;96580.34;5112969;28;20305;-64
2023/08/24 03:26:07;;;;;;;5.60;4.97;;;;;;;21.17;100.00;96580.94;5117153;28;20232;-64
2023/08/24 03:28:35;;;;;;;4.90;4.50;;;;;;;21.17;100.00;96586.31;5116447;28;20291;-66
2023/08/24 03:31:02;;;;;;;7.35;4.85;;;;;;;21.19;100.00;96592.31;5115429;28;20225;-64
2023/08/24 03:33:28;;;;;;;4.85;4.45;;;;;;;21.17;100.00;96589.84;5113639;28;20213;-66
2023/08/24 03:35:55;;;;;;;5.65;4.97;;;;;;;21.13;100.00;96593.16;5112459;28;20209;-67
2023/08/24 03:38:21;;;;;;;5.90;5.20;;;;;;;21.11;100.00;96587.16;5112962;28;20197;-64
2023/08/24 03:40:48;;;;;;;6.15;5.00;;;;;;;21.08;100.00;96587.56;5112539;28;20292;-65
2023/08/24 03:43:15;;;;;;;6.32;5.72;;;;;;;21.08;100.00;96590.25;5112141;28;21453;-65
2023/08/24 03:45:44;;;;;;;5.80;4.70;;;;;;;21.04;100.00;96587.16;5112489;28;20210;-64
2023/08/24 03:48:10;;;;;;;7.07;4.85;;;;;;;21.00;100.00;96587.78;5112598;28;20575;-64
2023/08/24 03:50:37;;;;;;;6.28;5.30;;;;;;;20.99;100.00;96586.94;5112247;28;20219;-64
2023/08/24 03:53:04;;;;;;;6.15;5.57;;;;;;;20.92;100.00;96586.13;5113111;28;20531;-64
2023/08/24 03:55:32;;;;;;;5.63;5.05;;;;;;;20.96;100.00;96581.16;5114356;28;20208;-64
2023/08/24 03:57:59;;;;;;;6.18;5.38;;;;;;;20.93;100.00;96584.28;5110751;28;20653;-63
2023/08/24 04:00:26;;;;;;;8.13;5.57;;;;;;;20.96;100.00;96586.53;5112171;28;20772;-66
2023/08/24 04:02:53;;;;;;;5.65;4.82;;;;;;;20.94;100.00;96588.63;5112127;28;20229;-65
2023/08/24 04:05:20;;;;;;;5.90;5.50;;;;;;;20.95;100.00;96595.63;5113036;28;20220;-63
2023/08/24 04:07:47;;;;;;;5.43;5.03;;;;;;;20.89;100.00;96585.72;5114161;28;20200;-65
2023/08/24 04:10:13;;;;;;;5.53;5.07;;;;;;;20.93;100.00;96592.34;5112403;28;20197;-65
2023/08/24 04:12:40;;;;;;;6.10;5.60;;;;;;;20.89;100.00;96580.34;5112396;28;20521;-65
2023/08/24 04:15:07;;;;;;;8.63;5.00;;;;;;;20.85;100.00;96580.75;5112110;28;20220;-64
2023/08/24 04:17:34;;;;;;;6.47;5.85;;;;;;;20.84;100.00;96580.97;5113164;28;20197;-64
2023/08/24 04:20:04;;;;;;;5.88;5.38;;;;;;;20.86;100.00;96584.28;5112433;28;20197;-64
2023/08/24 04:22:30;;;;;;;5.88;5.05;;;;;;;20.86;100.00;96570.84;5112796;28;20219;-64
2023/08/24 04:24:57;;;;;;;5.65;5.15;;;;;;;20.80;100.00;96594.00;5112482;28;20213;-65
2023/08/24 04:27:24;;;;;;;6.00;5.25;;;;;;;20.80;100.00;96591.28;5112383;28;20245;-63
2023/08/24 04:29:51;;;;;;;7.18;5.55;;;;;;;20.82;100.00;96593.78;5122434;28;20565;-64
2023/08/24 04:32:18;;;;;;;8.90;5.80;;;;;;;20.84;100.00;96595.22;5125347;28;20226;-66
2023/08/24 04:34:44;;;;;;;5.65;5.13;;;;;;;20.76;100.00;96584.69;5131084;28;20265;-65
2023/08/24 04:37:12;;;;;;;7.15;6.38;;;;;;;20.79;100.00;96586.97;5123039;28;20233;-65
2023/08/24 04:39:38;;;;;;;9.43;5.65;;;;;;;20.75;100.00;96584.91;5112639;28;20296;-64
2023/08/24 04:42:06;;;;;;;5.97;5.40;;;;;;;20.76;100.00;96586.56;5112405;28;20205;-64
2023/08/24 04:44:33;;;;;;;6.60;5.88;;;;;;;20.78;100.00;96590.69;5094245;28;20518;-64
2023/08/24 04:46:59;;;;;;;7.70;5.90;;;;;;;20.78;100.00;96592.56;5114958;28;20300;-63
2023/08/24 04:49:26;;;;;;;7.50;6.18;;;;;;;20.73;100.00;96592.34;5111919;28;20565;-64
2023/08/24 04:51:52;;;;;;;6.07;5.53;;;;;;;20.82;100.00;96591.09;5111608;28;20212;-64
2023/08/24 04:54:21;;;;;;;9.07;6.03;;;;;;;20.85;100.00;96596.06;5111664;28;20216;-65
2023/08/24 04:56:48;;;;;;;8.25;5.90;;;;;;;20.93;100.00;96597.72;5111611;28;20197;-64
2023/08/24 04:59:14;;;;;;;6.15;5.63;;;;;;;21.00;100.00;96596.66;5111667;28;20204;-65
2023/08/24 05:01:41;;;;;;;6.07;5.55;;;;;;;21.06;100.00;96603.91;5111599;28;20258;-63
2023/08/24 05:04:07;;;;;;;6.50;5.90;;;;;;;21.12;100.00;96596.88;5110885;28;20205;-65
2023/08/24 05:06:34;;;;;;;6.13;5.40;;;;;;;21.17;100.00;96597.91;5111602;28;20198;-65
2023/08/24 05:09:00;;;;;;;6.65;5.97;;;;;;;21.24;100.00;96592.50;5112752;28;20197;-64
2023/08/24 05:11:30;;;;;;;6.40;5.80;;;;;;;21.32;100.00;96608.44;5114486;28;20315;-66
2023/08/24 05:13:57;;;;;;;6.75;5.57;;;;;;;21.36;100.00;96601.59;5115696;28;20201;-64
2023/08/24 05:16:23;;;;;;;7.40;5.82;;;;;;;21.41;100.00;96599.06;5115128;28;20212;-64
2023/08/24 05:18:50;;;;;;;6.80;6.05;;;;;;;21.45;100.00;96607.56;5115354;28;20228;-64
2023/08/24 05:21:16;;;;;;;10.45;9.40;;;;;;;21.50;100.00;96600.53;5114853;28;20201;-64
2023/08/24 05:23:43;;;;;;;14.50;12.18;;;;;;;21.53;100.00;96602.78;5115649;28;20205;-64
2023/08/24 05:26:09;;;;;;;7.82;7.07;;;;;;;21.60;100.00;96608.97;5114064;28;20229;-64
2023/08/24 05:28:37;;;;;;;6.75;6.18;;;;;;;21.63;100.00;96605.84;5115288;28;20213;-65
2023/08/24 05:31:03;;;;;;;7.72;5.82;;;;;;;21.65;100.00;96605.63;5115033;28;20213;-67
2023/08/24 05:33:33;;;;;;;6.10;5.60;;;;;;;21.70;100.00;96601.25;5117431;28;20197;-65
2023/08/24 05:35:59;;;;;;;6.53;5.78;;;;;;;21.72;100.00;96604.56;5123575;28;20231;-65
2023/08/24 05:38:25;;;;;;;6.80;6.10;;;;;;;21.69;100.00;96598.78;5123196;28;20208;-65
2023/08/24 05:40:52;;;;;;;6.47;5.90;;;;;;;21.71;100.00;96602.09;5118698;28;20193;-64
2023/08/24 05:43:19;;;;;;;6.13;5.63;;;;;;;21.75;100.00;96604.13;5114648;28;20209;-64
2023/08/24 05:45:48;;;;;;;6.32;5.72;;;;;;;21.77;100.00;96601.22;5113783;28;20235;-64
2023/08/24 05:48:15;;;;;;;6.20;5.70;;;;;;;21.80;100.00;96601.63;5114464;28;20653;-64
2023/08/24 05:50:45;;;;;;;6.47;5.88;;;;;;;21.78;100.00;96600.19;5114180;28;20297;-63
2023/08/24 05:53:12;;;;;;;6.38;5.75;;;;;;;21.78;100.00;96597.50;5114459;28;20201;-64
2023/08/24 05:55:39;;;;;;;7.53;6.10;;;;;;;21.71;100.00;96605.63;5114168;28;20205;-64
2023/08/24 05:58:05;;;;;;;7.53;6.65;;;;;;;21.75;100.00;96606.81;5113576;28;20640;-64
2023/08/24 06:00:32;;;;;;;6.50;5.93;;;;;;;21.78;100.00;96605.59;5114244;28;20197;-64
2023/08/24 06:03:00;;;;;;;7.18;6.10;;;;;;;21.80;100.00;96604.31;5114773;28;20205;-64
2023/08/24 06:05:27;;;;;;;6.75;6.05;;;;;;;21.88;100.00;96597.88;5114185;28;20322;-63
2023/08/24 06:07:54;;;;;;;8.32;6.60;;;;;;;21.90;100.00;96609.25;5114588;28;20613;-64
2023/08/24 06:10:21;;;;;;;6.72;5.65;;;;;;;22.05;100.00;96599.03;5113723;28;20325;-64
2023/08/24 06:12:47;;;;;;;7.55;5.53;;;;;;;22.26;100.00;96600.56;5113180;28;20225;-66
2023/08/24 06:15:14;;;;;;;6.50;6.00;;;;;;;22.39;100.00;96605.88;5113648;28;20287;-64
2023/08/24 06:17:40;;;;;;;7.18;6.07;;;;;;;22.59;100.00;96600.34;5112701;28;20687;-64
2023/08/24 06:20:11;;;;;;;6.78;6.13;;;;;;;22.72;100.00;96602.97;5111957;28;20219;-65
2023/08/24 06:22:38;;;;;;;6.47;5.88;;;;;;;22.76;100.00;96596.91;5113207;28;20262;-64
2023/08/24 06:25:08;;;;;;;6.43;5.78;;;;;;;22.87;100.00;96602.63;5113427;28;20201;-64
2023/08/24 06:27:35;;;;;;;7.25;6.57;;;;;;;23.07;100.00;96592.47;5112549;28;20701;-64
2023/08/24 06:30:03;;;;;;;7.28;6.32;;;;;;;23.43;100.00;96603.34;5112552;28;20224;-64
2023/08/24 06:32:29;;;;;;;6.93;6.18;;;;;;;23.68;100.00;96603.28;5112845;28;20225;-64
2023/08/24 06:34:56;;;;;;;7.97;5.90;;;;;;;24.02;100.00;96612.63;5112134;28;20205;-63
2023/08/24 06:37:23;;;;;;;9.57;6.18;;;;;;;24.27;100.00;96613.34;5112821;28;20197;-65
2023/08/24 06:39:50;;;;;;;7.18;6.13;;;;;;;24.61;98.49;96617.22;5112921;28;20208;-64
2023/08/24 06:42:16;;;;;;;9.05;6.07;;;;;;;24.88;97.14;96623.03;5112660;28;20205;-64
2023/08/24 06:44:43;;;;;;;27.65;7.30;;;;;;;24.94;92.97;96616.72;5113120;28;21266;-65
2023/08/24 06:47:09;;;;;;;15.77;6.78;;;;;;;25.06;94.20;96626.47;5112337;28;20597;-66
2023/08/24 06:49:36;;;;;;;45.60;9.73;;;;;;;24.95;92.62;96618.34;5112426;28;20216;-65
2023/08/24 06:52:03;;;;;;;9.18;6.20;;;;;;;25.01;93.36;96612.81;5112853;28;20240;-64
2023/08/24 06:54:31;;;;;;;6.85;6.10;;;;;;;25.33;93.48;96613.28;5112758;28;20220;-64
2023/08/24 06:56:57;;;;;;;18.58;7.05;;;;;;;25.70;92.61;96601.16;5111928;28;20630;-65
2023/08/24 06:59:24;;;;;;;19.23;7.90;;;;;;;26.02;86.45;96604.25;5112693;28;20209;-65
2023/08/24 07:01:52;;;;;;;7.22;6.07;;;;;;;26.25;86.21;96600.66;5112633;28;20692;-63
2023/08/24 07:04:19;;;;;;;9.63;6.53;;;;;;;26.49;83.98;96604.09;5112440;28;20646;-65
2023/08/24 07:06:46;;;;;;;10.77;6.18;;;;;;;26.68;82.81;96605.50;5111883;28;20285;-65
2023/08/24 07:09:12;;;;;;;7.93;5.60;;;;;;;26.60;85.17;96605.91;5113109;28;20277;-66
2023/08/24 07:11:40;;;;;;;6.97;6.28;;;;;;;26.33;82.80;96604.84;5112328;28;20225;-66
2023/08/24 07:14:06;;;;;;;7.00;6.30;;;;;;;26.63;83.18;96610.84;5113685;28;20248;-65
2023/08/24 07:16:33;;;;;;;9.60;6.78;;;;;;;26.84;83.76;96606.63;5111709;28;20201;-64
2023/08/24 07:18:59;;;;;;;9.82;6.82;;;;;;;26.80;82.80;96600.00;5112723;28;20409;-65
2023/08/24 07:21:26;;;;;;;10.82;6.72;;;;;;;26.74;83.04;96601.81;5112042;28;20201;-68
2023/08/24 07:23:52;;;;;;;6.40;5.80;;;;;;;26.97;82.92;96596.25;5112739;28;20251;-67
2023/08/24 07:26:19;;;;;;;19.80;6.88;;;;;;;27.14;81.96;96596.22;5111651;28;20733;-65
2023/08/24 07:28:47;;;;;;;9.50;6.05;;;;;;;27.29;81.08;96599.19;5111938;28;20193;-64
2023/08/24 07:31:13;;;;;;;7.13;5.70;;;;;;;27.44;80.32;96591.25;5110855;28;20617;-66
2023/08/24 07:33:40;;;;;;;8.77;6.20;;;;;;;27.51;80.02;96581.06;5113590;28;20484;-65
2023/08/24 07:36:07;;;;;;;10.18;6.20;;;;;;;27.64;78.31;96582.59;5115003;28;20204;-66
2023/08/24 07:38:34;;;;;;;9.25;5.97;;;;;;;27.32;81.82;96587.81;5113652;28;20197;-67
2023/08/24 07:41:01;;;;;;;6.72;6.00;;;;;;;27.38;82.04;96589.56;5112139;28;20220;-66
2023/08/24 07:43:27;;;;;;;6.90;6.20;;;;;;;27.31;77.38;96588.91;5114678;28;20200;-70
2023/08/24 07:45:55;;;;;;;11.18;5.90;;;;;;;27.42;79.32;96589.88;5114033;28;20271;-68
2023/08/24 07:48:21;;;;;;;7.88;6.05;;;;;;;27.54;79.50;96591.44;5118146;28;20653;-64
2023/08/24 07:50:48;;;;;;;12.15;6.15;;;;;;;27.80;80.28;96589.88;5111322;28;20205;-65
2023/08/24 07:53:15;;;;;;;12.82;6.22;;;;;;;27.96;76.54;96593.59;5112296;28;20309;-66
2023/08/24 07:55:41;;;;;;;16.13;6.85;;;;;;;28.19;76.98;96590.63;5111605;28;20247;-65
2023/08/24 07:58:07;;;;;;;6.75;5.95;;;;;;;28.28;77.15;96590.97;5112017;28;20677;-64
2023/08/24 08:00:34;;;;;;;14.70;6.80;;;;;;;28.51;75.61;96591.53;5111952;28;20193;-65
2023/08/24 08:03:02;;;;;;;14.15;6.65;;;;;;;28.62;74.71;96587.81;5111413;28;20197;-65
2023/08/24 08:05:29;;;;;;;13.77;7.05;;;;;;;28.30;77.17;96581.50;5111260;28;20250;-64
2023/08/24 08:07:55;;;;;;;7.95;5.82;;;;;;;28.09;76.65;96588.59;5111405;28;20228;-64
2023/08/24 08:10:22;;;;;;;8.15;6.18;;;;;;;28.15;76.19;96581.34;5111133;28;20205;-64
2023/08/24 08:12:48;;;;;;;8.35;5.95;;;;;;;28.36;76.35;96583.19;5110615;28;20224;-65
2023/08/24 08:15:15;;;;;;;8.52;5.72;;;;;;;28.58;75.24;96588.59;5110544;28;21409;-64
2023/08/24 08:17:42;;;;;;;8.20;5.80;;;;;;;28.85;74.84;96577.69;5110858;28;20201;-65
2023/08/24 08:20:11;;;;;;;9.23;5.47;;;;;;;29.01;72.66;96579.47;5111154;28;20197;-64
2023/08/24 08:22:38;;;;;;;12.75;6.07;;;;;;;29.24;75.19;96579.06;5111365;28;20232;-64
2023/08/24 08:25:05;;;;;;;6.43;5.82;;;;;;;29.40;70.96;96569.13;5110696;28;20301;-66
2023/08/24 08:27:32;;;;;;;9.27;6.07;;;;;;;29.47;73.23;96567.00;5110821;28;20308;-63
2023/08/24 08:29:59;;;;;;;11.05;6.18;;;;;;;29.69;70.50;96567.63;5110902;28;20205;-65
2023/08/24 08:32:27;;;;;;;12.63;6.30;;;;;;;29.75;70.30;96573.94;5110468;28;20247;-65
2023/08/24 08:34:54;;;;;;;9.55;5.90;;;;;;;29.74;72.25;96577.75;5110423;28;20205;-65
2023/08/24 08:37:21;;;;;;;9.60;5.82;;;;;;;29.78;67.98;96579.69;5110634;28;20228;-64
2023/08/24 08:39:48;;;;;;;8.32;6.28;;;;;;;30.02;70.59;96577.34;5111041;28;20201;-63
2023/08/24 08:42:15;;;;;;;26.02;8.98;;;;;;;30.02;69.87;96580.91;5110956;28;20617;-65
2023/08/24 08:44:42;;;;;;;8.20;5.82;;;;;;;30.25;68.68;96582.34;5116266;28;20201;-64
2023/08/24 08:47:10;;;;;;;12.77;6.10;;;;;;;30.43;67.37;96587.31;5116197;28;20197;-65
2023/08/24 08:49:37;;;;;;;19.75;7.65;;;;;;;30.34;66.82;96582.63;5116318;28;20219;-65
2023/08/24 08:52:04;;;;;;;13.13;6.32;;;;;;;30.50;67.53;96598.78;5115023;28;20216;-65
2023/08/24 08:54:32;;;;;;;6.80;6.15;;;;;;;30.45;65.22;96589.78;5114780;28;20597;-64
2023/08/24 08:56:59;;;;;;;7.78;5.60;;;;;;;30.74;66.11;96582.72;5115046;27;20258;-64
2023/08/24 08:59:29;;;;;;;6.90;5.55;;;;;;;31.09;67.87;96576.47;5115086;28;20563;-65
2023/08/24 09:01:56;;;;;;;10.35;6.20;;;;;;;31.25;67.38;96583.53;5114480;28;20208;-65
2023/08/24 09:04:22;;;;;;;6.18;5.65;;;;;;;31.31;64.65;96581.63;5115047;28;20645;-66
2023/08/24 09:06:49;;;;;;;10.50;5.90;;;;;;;31.50;66.44;96575.28;5114870;28;20261;-64
2023/08/24 09:09:16;;;;;;;10.38;5.80;;;;;;;31.52;63.33;96575.06;5115008;28;20200;-64
2023/08/24 09:11:47;;;;;;;12.05;6.55;;;;;;;31.68;62.79;96576.66;5114439;28;20208;-65
2023/08/24 09:14:13;;;;;;;11.20;6.25;;;;;;;31.55;62.83;96572.59;5115302;28;20299;-65
2023/08/24 09:16:40;;;;;;;7.85;6.10;;;;;;;31.50;66.03;96569.84;5114526;28;20320;-64
2023/08/24 09:19:07;;;;;;;9.65;6.30;;;;;;;31.68;63.92;96565.72;5114918;28;20189;-65
2023/08/24 09:21:37;;;;;;;10.38;6.03;;;;;;;31.92;64.17;96557.72;5114684;28;20202;-65
2023/08/24 09:24:04;;;;;;;9.82;6.22;;;;;;;31.93;61.27;96559.31;5114463;28;20551;-65
2023/08/24 09:26:31;;;;;;;9.73;5.88;;;;;;;32.26;63.27;96553.16;5113632;28;20272;-65
2023/08/24 09:29:01;;;;;;;7.05;5.57;;;;;;;32.24;62.51;96552.63;5114833;28;20205;-66
2023/08/24 09:31:36;;;;;;;8.55;6.20;;;;;;;32.41;61.18;96544.88;5113399;28;20221;-64
2023/08/24 09:34:03;;;;;;;14.32;6.78;;;;;;;32.30;61.47;96540.56;5114228;28;20212;-64
2023/08/24 09:36:32;;;;;;;12.13;6.80;;;;;;;32.32;62.37;96546.56;5113833;28;20697;-64
2023/08/24 09:38:59;;;;;;;7.70;5.65;;;;;;;32.52;61.33;96543.69;5113611;28;20197;-65
2023/08/24 09:41:37;;;;;;;10.32;5.57;;;;;;;32.74;62.67;96540.53;5114051;28;20204;-65
2023/08/24 09:44:05;;;;;;;10.95;5.68;;;;;;;33.05;61.19;96535.63;5114117;28;20193;-65
2023/08/24 09:46:32;;;;;;;10.68;6.10;;;;;;;32.97;58.45;96536.25;5115616;28;20299;-65
2023/08/24 09:49:00;;;;;;;11.07;5.78;;;;;;;33.16;59.47;96533.66;5117949;28;20227;-66
2023/08/24 09:51:27;;;;;;;8.52;5.88;;;;;;;33.31;58.36;96533.47;5117004;28;20384;-66
2023/08/24 09:53:58;;;;;;;10.10;5.95;;;;;;;33.21;58.42;96539.88;5115855;28;20217;-65
2023/08/24 09:56:26;;;;;;;9.82;5.75;;;;;;;33.43;58.93;96522.94;5115225;28;20240;-65
2023/08/24 09:58:55;;;;;;;7.50;6.47;;;;;;;33.39;57.75;96519.97;5114031;28;20196;-65
2023/08/24 10:01:23;;;;;;;7.65;6.40;;;;;;;33.43;57.30;96522.94;5113787;28;20194;-64
2023/08/24 10:03:52;;;;;;;7.90;6.00;;;;;;;33.35;57.54;96521.63;5113611;28;20311;-65
2023/08/24 10:06:21;;;;;;;11.50;6.30;;;;;;;33.27;56.57;96515.97;5113847;28;20205;-64
2023/08/24 10:08:49;;;;;;;10.80;6.10;;;;;;;33.62;56.64;96507.41;5113322;28;20202;-65
2023/08/24 10:11:18;;;;;;;7.90;5.93;;;;;;;33.57;56.47;96501.09;5113263;28;20209;-65
2023/08/24 10:13:51;;;;;;;9.68;5.68;;;;;;;33.79;56.80;96501.41;5112928;28;20240;-64
2023/08/24 10:16:19;;;;;;;8.18;5.68;;;;;;;33.89;55.03;96491.13;5113642;28;20201;-67
2023/08/24 10:18:48;;;;;;;7.10;5.68;;;;;;;33.58;56.74;96489.84;5114262;28;20201;-68
2023/08/24 10:21:14;;;;;;;8.43;6.15;;;;;;;33.93;58.15;96480.38;5114134;28;20205;-67
2023/08/24 10:23:43;;;;;;;12.02;8.38;;;;;;;33.71;55.71;96482.88;5113683;28;20213;-66
2023/08/24 10:26:09;;;;;;;12.88;7.53;;;;;;;33.63;54.87;96467.06;5113355;28;20244;-64
2023/08/24 10:28:36;;;;;;;10.00;6.30;;;;;;;33.67;54.74;96470.84;5113310;28;20538;-66
2023/08/24 10:31:03;;;;;;;9.13;5.95;;;;;;;33.93;55.93;96461.16;5114227;28;20291;-65
2023/08/24 10:33:30;;;;;;;9.60;5.45;;;;;;;33.95;55.24;96464.44;5114195;28;20228;-65
2023/08/24 10:35:58;;;;;;;10.93;6.18;;;;;;;33.90;54.63;96453.53;5115410;28;20220;-65
2023/08/24 10:38:26;;;;;;;11.13;6.28;;;;;;;33.81;54.09;96456.13;5114652;28;20220;-65
2023/08/24 10:40:53;;;;;;;9.35;5.95;;;;;;;33.72;54.37;96457.06;5116388;28;20205;-65
2023/08/24 10:43:20;;;;;;;6.53;5.95;;;;;;;33.84;54.40;96449.22;5114250;28;20656;-65
2023/08/24 10:45:59;;;;;;;9.70;6.25;;;;;;;33.86;54.66;96441.50;5114823;28;20216;-65
2023/08/24 10:48:26;;;;;;;8.25;6.18;;;;;;;33.62;55.44;96443.47;5112982;28;20212;-66
2023/08/24 10:51:20;;;;;;;6.88;5.90;;;;;;;33.74;55.74;96439.19;5112435;28;20205;-65
2023/08/24 10:53:48;;;;;;;9.30;6.60;;;;;;;33.82;55.27;96434.97;5112161;28;20228;-66
2023/08/24 10:56:16;;;;;;;9.07;6.03;;;;;;;34.06;55.03;96430.25;5113048;28;20265;-65
2023/08/24 10:58:43;;;;;;;8.95;5.70;;;;;;;34.25;54.50;96428.34;5111612;28;20197;-63
2023/08/24 11:01:15;;;;;;;12.68;5.90;;;;;;;34.37;53.88;96436.09;5112729;28;20292;-65
2023/08/24 11:03:45;;;;;;;10.73;6.43;;;;;;;34.38;53.27;96429.50;5112319;28;20579;-66
2023/08/24 11:06:20;;;;;;;8.75;5.82;;;;;;;34.21;52.20;96438.28;5110827;28;20216;-66
2023/08/24 11:08:48;;;;;;;8.40;5.85;;;;;;;34.45;52.91;96428.00;5112254;28;21452;-66
2023/08/24 11:11:22;;;;;;;10.23;6.15;;;;;;;34.57;53.04;96423.97;5112246;28;20304;-65
2023/08/24 11:14:14;;;;;;;12.25;6.60;;;;;;;34.41;52.26;96426.97;5111992;28;20555;-64
2023/08/24 11:16:43;;;;;;;11.75;6.15;;;;;;;34.44;52.19;96420.88;5112040;28;20209;-64
2023/08/24 11:19:10;;;;;;;7.57;5.80;;;;;;;34.46;52.50;96417.84;5112259;28;20198;-65
2023/08/24 11:21:39;;;;;;;9.10;5.95;;;;;;;34.35;51.92;96417.19;5112101;28;20220;-65
2023/08/24 11:24:06;;;;;;;12.52;6.43;;;;;;;34.12;53.32;96412.56;5111901;28;20205;-65
2023/08/24 11:26:33;;;;;;;7.40;6.18;;;;;;;34.57;52.75;96407.50;5111587;28;20235;-65
2023/08/24 11:28:59;;;;;;;10.82;6.75;;;;;;;34.28;53.21;96411.25;5112115;28;20197;-64
2023/08/24 11:31:26;;;;;;;9.10;6.13;;;;;;;34.71;54.73;96405.63;5112261;28;20216;-66